PDT,Max TemperatureF,Mean TemperatureF,Min TemperatureF,Max Dew PointF,MeanDew PointF,Min DewpointF,Max Humidity, Mean Humidity, Min Humidity, Max Sea Level PressureIn, Mean Sea Level PressureIn, Min Sea Level PressureIn, Max VisibilityMiles, Mean VisibilityMiles, Min VisibilityMiles, Max Wind SpeedMPH, Mean Wind SpeedMPH, Max Gust SpeedMPH,PrecipitationIn, CloudCover, Events, WindDirDegrees
2012-3-1,56,50,44,48,43,39,83,80,76,30.26,30.20,30.15,10,10,10,17,7,23,T,6,Rain,148
2012-3-2,63,51,38,40,31,27,89,57,25,30.37,30.31,30.26,10,10,10,18,8,23,0.00,0,,341
2012-3-3,69,52,35,41,37,33,92,61,29,30.39,30.32,30.25,10,10,10,7,1,10,0.00,0,,105
2012-3-4,74,57,40,44,41,38,93,62,31,30.26,30.16,30.05,10,10,9,9,1,13,0.00,0,,337
2012-3-5,73,57,41,49,43,38,96,67,38,30.09,30.01,29.93,10,10,10,12,3,14,0.00,0,,202
2012-3-6,58,52,46,45,25,11,86,52,17,30.06,29.96,29.88,10,10,10,33,14,43,0.00,1,,308
2012-3-7,65,52,39,29,20,14,48,32,15,30.19,30.14,30.08,10,10,10,25,12,31,0.00,0,,335
2012-3-8,69,52,34,33,28,25,75,48,20,30.34,30.29,30.21,10,10,10,9,3,15,0.00,0,,127
2012-3-9,73,55,36,39,34,28,85,54,23,30.35,30.25,30.11,10,10,7,7,1,10,0.00,0,,286
2012-3-10,67,54,41,47,41,33,83,63,42,30.11,30.02,29.95,10,10,10,20,7,26,0.00,0,,195
2012-3-11,62,55,47,46,41,36,86,69,51,30.06,30.02,29.98,10,10,10,17,8,23,T,5,,211
2012-3-12,63,50,37,42,38,36,92,66,39,30.06,30.00,29.93,10,10,8,15,4,21,0.00,1,,199
2012-3-13,56,54,52,52,47,40,93,76,59,30.01,29.96,29.88,10,9,4,16,10,25,0.26,8,Rain,157
2012-3-14,58,56,53,55,53,51,93,90,86,30.13,30.07,29.98,10,5,2,15,8,20,0.88,8,Rain,144
2012-3-15,62,59,56,57,54,51,93,86,78,30.16,30.11,30.06,10,9,2,12,4,15,0.03,8,Rain,187
2012-3-16,58,53,48,55,53,43,93,88,83,30.05,29.86,29.70,10,7,2,20,7,26,0.68,8,Rain,186
2012-3-17,52,46,40,45,42,39,100,84,68,29.72,29.59,29.51,10,9,2,13,5,18,0.27,5,Rain,125
2012-3-18,57,49,40,41,36,28,96,66,35,29.94,29.74,29.61,10,10,10,22,5,28,0.02,6,Rain,194
2012-3-19,55,45,34,36,33,30,92,68,44,30.10,30.03,29.95,10,10,10,7,1,10,0.00,2,,83
2012-3-20,65,57,48,45,39,35,71,55,39,30.22,30.17,30.12,10,10,10,8,1,14,0.00,7,,108
2012-3-21,70,58,46,51,47,44,93,73,52,30.18,30.07,29.97,10,10,10,12,3,16,0.00,5,,197
2012-3-22,62,53,44,51,43,22,89,56,22,30.00,29.95,29.91,10,10,10,20,7,26,0.00,6,,208
2012-3-23,62,51,40,40,35,32,82,59,36,30.12,30.01,29.90,10,10,10,16,6,23,0.00,0,,192
2012-3-24,53,50,46,42,40,37,86,74,61,29.93,29.87,29.83,10,10,10,16,5,22,0.01,3,,289
2012-3-25,59,51,43,45,43,38,92,75,57,29.89,29.84,29.80,10,9,5,15,6,20,0.50,6,Rain,298
2012-3-26,60,51,42,43,40,37,96,72,47,30.10,30.03,29.88,10,10,10,12,5,18,0.00,3,,180
2012-3-27,58,54,50,50,45,36,77,60,43,30.05,29.96,29.91,10,8,2,14,4,20,0.12,7,Rain,153
2012-3-28,67,60,52,54,49,41,93,73,52,30.12,30.05,29.96,10,10,3,18,8,25,0.07,5,Rain,180
2012-3-29,63,54,44,52,48,43,100,82,64,30.14,30.11,30.07,10,9,2,9,2,14,0.00,3,Rain,201
2012-3-30,67,59,51,54,52,50,96,82,67,30.12,30.01,29.90,10,9,2,17,5,23,T,5,Rain,216
2012-3-31,63,56,49,52,46,39,86,71,55,30.00,29.84,29.71,10,8,2,30,9,37,0.23,6,Rain,195